Cranfills Gap, Texas
Current Conditions -  °F | °C
As of 7:15 PM on Sunday 23 Nov 2014 (Local Time) from KMNZ Reporting Station
Clear Clear  
Wind Chill: 62°   Ceiling: Unl
Heat Index: 62°   Visibility: 10mi
Dew Point: 38°   Wind: 17mph
Humidity: 42%   Direction: 330°NNW
Pressure: 29.67"   Gusts: 22mph
Location:  31.77°N, 97.83°W
Report Text: KMNZ 240115Z AUTO 33015G19KT 10SM CLR 17/04 A2967 RMK AO2 T01660035
Loading
Personal Weather Stations






























Interactive Weather Map New forecast layout! Learn more

10-Day Weather Forecast

Advertisements
Track Severe Weather on mobile